Nearby METAR Reports

 

KMMK - Meriden, Connecticut, USA
Distance from station: SSE 6mi, 10km
Updated: Tue, 07-05-2022 1:53am EDT
Clear
Clear
 Wind from calm
Wind: Calm
Temperature: 63°F , 17°C
Dew Point: 57°F , 14°C
Humidity: 83%
Barometer: 30.10 inHg , 1019.3 hPa
Clouds: Clear
Visibility: 10 miles , 16 km
2022/07/05 05:53 KMMK 050553Z AUTO 00000KT 10SM CLR 17/14 A3010 RMK AO2 SLP192 T01720144 10250 20172 56005
KHFD - Hartford/Brainar, Connecticut, USA
Distance from station: NE 15mi, 25km
Updated: Tue, 07-05-2022 1:53am EDT
Clear
Clear
 Wind from SSE
Wind: SSE 3 mph , 6 km/h
Temperature: 68°F , 20°C
Dew Point: 61°F , 16°C
Humidity: 78%
Barometer: 30.10 inHg , 1019.3 hPa
Clouds: Clear
Visibility: 10 miles , 16 km
2022/07/05 05:53 KHFD 050553Z AUTO 16003KT 10SM CLR 20/16 A3010 RMK AO2 SLP191 T02000156 10278 20200 56004
 
KOXC - Oxford/Waterbury, Connecticut, USA
Distance from station: SW 16mi, 25km
Updated: Tue, 07-05-2022 1:51am EDT
Clear
Clear
 Wind from calm
Wind: Calm
Temperature: 63°F , 17°C
Dew Point: 57°F , 14°C
Humidity: 83%
Barometer: 30.13 inHg , 1020.3 hPa
Clouds: Clear
Visibility: 10 miles , 16 km
2022/07/05 05:51 KOXC 050551Z AUTO 00000KT 10SM CLR 17/14 A3013 RMK AO2 SLP212 T01720144 10244 20172 56004
KHVN - New Haven/Tweed, Connecticut, USA
Distance from station: S 23mi, 37km
Updated: Tue, 07-05-2022 1:53am EDT
Haze, Clear
Haze, Clear
 Wind from S
Wind: S 3 mph , 6 km/h
Temperature: 72°F , 22°C
Dew Point: 63°F , 17°C
Humidity: 73%
Barometer: 30.11 inHg , 1019.6 hPa
Summary: Haze
Clouds: Clear
Visibility: 6 miles , 10 km
2022/07/05 05:53 KHVN 050553Z AUTO 18003KT 6SM HZ CLR 22/17 A3011 RMK AO2 SLP194 T02170167 10250 20206 56005
 
KSNC - Chester, Connecticut, USA
Distance from station: SE 25mi, 40km
Updated: Tue, 07-05-2022 1:55am EDT
Clear
Clear
 Wind from varies
Wind: varies 5 mph , 7 km/h
Temperature: 68°F , 20°C
Dew Point: 59°F , 15°C
Humidity: 73%
Barometer: 30.12 inHg , 1020 hPa
Clouds: Clear
Visibility: 10 miles , 16 km
2022/07/05 05:55 KSNC 050555Z AUTO VRB04KT 10SM CLR 20/15 A3012 RMK AO2
KBDL - Windsor Locks, Connecticut, USA
Distance from station: NNE 25mi, 41km
Updated: Tue, 07-05-2022 1:51am EDT
Mostly cloudy
Mostly cloudy
 Wind from W
Wind: W 5 mph , 7 km/h
Temperature: 66°F , 19°C
Dew Point: 55°F , 13°C
Humidity: 68%
Barometer: 30.10 inHg , 1019.3 hPa
Clouds: Mostly cloudy
Visibility: 10 miles , 16 km
Cloud details: Few Clouds 22000 ft
Mostly cloudy 25000 ft
2022/07/05 05:51 KBDL 050551Z 28004KT 10SM FEW220 BKN250 19/13 A3010 RMK AO2 SLP190 T01890133 10261 20183 56005 $
 
KBDR - Bridgeport, Connecticut, USA
Distance from station: SSW 33mi, 52km
Updated: Tue, 07-05-2022 1:52am EDT
Clear
Clear
 Wind from WSW
Wind: WSW 5 mph , 7 km/h
Temperature: 72°F , 22°C
Dew Point: 63°F , 17°C
Humidity: 73%
Barometer: 30.10 inHg , 1019.3 hPa
Clouds: Clear
Visibility: 9 miles , 14 km
2022/07/05 05:52 KBDR 050552Z AUTO 24004KT 9SM CLR 22/17 A3010 RMK AO2 SLP192 T02170167 10250 20211 58005
KDXR - Danbury, Connecticut, USA
Distance from station: WSW 35mi, 56km
Updated: Tue, 07-05-2022 1:53am EDT
Clear
Clear
 Wind from calm
Wind: Calm
Temperature: 64°F , 18°C
Dew Point: 57°F , 14°C
Humidity: 78%
Barometer: 30.12 inHg , 1020 hPa
Clouds: Clear
Visibility: 10 miles , 16 km
2022/07/05 05:53 KDXR 050553Z AUTO 00000KT 10SM CLR 18/14 A3012 RMK AO2 SLP195 T01830144 10256 20183 58006
 
KIJD - Willimantic, Connecticut, USA
Distance from station: ENE 38mi, 61km
Updated: Tue, 07-05-2022 1:52am EDT
Clear
Clear
 Wind from calm
Wind: Calm
Temperature: 61°F , 16°C
Dew Point: 57°F , 14°C
Humidity: 88%
Barometer: 30.12 inHg , 1020 hPa
Clouds: Clear
Visibility: 10 miles , 16 km
2022/07/05 05:52 KIJD 050552Z AUTO 00000KT 10SM CLR 16/14 A3012 RMK AO2 SLP196 T01610139 10250 20156 55002
KBAF - Westfield, Massachusetts, USA
Distance from station: NNE 40mi, 65km
Updated: Tue, 07-05-2022 1:53am EDT
Clear
Clear
 Wind from calm
Wind: Calm
Temperature: 61°F , 16°C
Dew Point: 54°F , 12°C
Humidity: 77%
Barometer: 30.10 inHg , 1019.3 hPa
Clouds: Clear
Visibility: 10 miles , 16 km
2022/07/05 05:53 KBAF 050553Z AUTO 00000KT 10SM CLR 16/12 A3010 RMK AO2 SLP190 T01560117 10261 20150 56005
 
KCEF - Chicopee/Westove, Massachusetts, USA
Distance from station: NNE 46mi, 73km
Updated: Tue, 07-05-2022 1:56am EDT
Partly cloudy
Partly cloudy
 Wind from calm
Wind: Calm
Temperature: 59°F , 15°C
Dew Point: 57°F , 14°C
Humidity: 94%
Barometer: 30.09 inHg , 1019 hPa
Clouds: Partly cloudy
Visibility: 10 miles , 16 km
Cloud details: Partly cloudy 20000 ft
2022/07/05 05:56 KCEF 050556Z AUTO 00000KT 10SM SCT200 15/14 A3009 RMK AO2 SLP194 T01500135 10254 20146 56004
KGON - Groton/New Londo, Connecticut, USA
Distance from station: ESE 47mi, 76km
Updated: Tue, 07-05-2022 1:56am EDT
Clear
Clear
 Wind from calm
Wind: Calm
Temperature: 66°F , 19°C
Dew Point: 59°F , 15°C
Humidity: 78%
Barometer: 30.10 inHg , 1019.3 hPa
Clouds: Clear
Visibility: 10 miles , 16 km
2022/07/05 05:56 KGON 050556Z AUTO 00000KT 10SM CLR 19/15 A3010 RMK AO2 SLP193 T01940150 10222 20194 57003